• Join FlightAware (Why Join?)
  • Login
  • US Flag 
04:50PM EDT


 

Airport Tracker/Info


-or-


 

Live Flight TrackerFlight Track Log ✈ SKW4664 ✈ 26-Apr-2013 ✈ KFSD - KMSP

Flight Track Log - Related Links

Times and Time Zones

All times are in EDT time to prevent confusion due to time zone crossing. See the SKW4664 flight status page for this flight to view local times or setup timezone preferences in your user account.

Time Position Orientation Groundspeed Altitude Reporting Facility
EDT Latitude Longitude Course Direction KTS MPH feet Rate Location/Type
12:11PM 43.6503 -96.6989 47° Northeast 224 258 5,000  Level Minneapolis Center
12:12PM 43.6925 -96.6214 53° Northeast 240 276 7,300 2,400 Climbing Minneapolis Center
12:13PM 43.8416 -96.2544 53° Northeast  Level FlightAware Approximate
12:13PM 43.7406 -96.5328 53° Northeast 263 303 10,000  Level Minneapolis Center
12:14PM 43.9086 -96.1314 53° Northeast  Level FlightAware Approximate
12:14PM 43.8064 -96.4075 54° Northeast 311 358 11,800  Level Minneapolis Center
12:15PM 43.9766 -96.0091 52° Northeast  Level FlightAware Approximate
12:15PM 43.8658 -96.2944 54° Northeast 350 403 13,900  Level Minneapolis Center
12:16PM 43.9244 -96.1831 54° Northeast 360 414 16,400 1,920 Climbing Minneapolis Center
12:17PM 43.9833 -96.0714 54° Northeast 362 417 17,900 1,380 Climbing Minneapolis Center
12:18PM 44.0319 -95.9794 54° Northeast 372 428 19,300 1,680 Climbing Minneapolis Center
12:19PM 44.1161 -95.8153 54° Northeast 379 436 21,400 1,620 Climbing Minneapolis Center
12:20PM 44.1789 -95.6961 54° Northeast 383 441 22,700 720 Climbing Minneapolis Center
12:21PM 44.2431 -95.5706 54° Northeast 395 455 23,000 120 Climbing Minneapolis Center
12:22PM 44.3114 -95.4375 54° Northeast 411 473 23,000  Level Minneapolis Center
12:23PM 44.3783 -95.3064 54° Northeast 417 480 23,000  Level Minneapolis Center
12:24PM 44.4569 -95.1500 55° Northeast 414 476 23,000  Level Minneapolis Center
12:25PM 44.4978 -94.9956 70° East 424 488 23,000  Level Minneapolis Center
12:26PM 44.5378 -94.8406 70° East 423 487 23,000 -1,260 Level Minneapolis Center
12:27PM 44.5747 -94.6817 72° East 428 493 20,500 -2,400 Descending Minneapolis Center
12:28PM 44.6011 -94.5589 73° East 424 488 18,100 -2,880 Descending Minneapolis Center
12:29PM 44.6431 -94.3822 71° East 398 458 14,600 -3,240 Descending Minneapolis Center
12:30PM 44.6811 -94.2122 72° East 381 438 11,400 -1,800 Descending Minneapolis Center
12:31PM 44.7119 -94.0736 73° East 373 429 11,000 -240 Descending Minneapolis Center
12:32PM 44.7436 -93.9331 72° East 377 434 11,000  Level Minneapolis Center
12:34PM 44.7747 -93.7919 73° East 379 436 11,000 -60 Level Minneapolis Center
12:35PM 44.8061 -93.6511 73° East 378 435 10,900 -540 Descending Minneapolis Center
12:36PM 44.8336 -93.5247 73° East 337 388 10,000 -1,140 Descending Minneapolis Center
12:37PM 44.8583 -93.4094 73° East 310 357 8,600 -1,020 Descending Minneapolis Center
12:38PM 44.8183 -93.2792 113° Southeast 302 348 8,000 -540 Descending Minneapolis Center
12:39PM 44.7794 -93.1708 117° Southeast 297 342 7,500 -1,440 Descending Minneapolis Center
12:40PM 44.7472 -93.0664 113° Southeast 294 338 5,100 -1,860 Descending Minneapolis Center
12:41PM 44.7975 -93.0239 31° Northeast 239 275 3,700 -1,380 Descending Minneapolis Center